Ashland, Oregon
Current Conditions -  °F | °C
As of 10:55 AM on Thursday 23 Oct 2014 (Local Time) from KMFR Reporting Station
Heavy Rain Heavy Rain  
Wind Chill: 13°   Ceiling: 400
Heat Index: 13°   Visibility: 2.5mi
Dew Point: 13°   Wind: 5mph
Humidity: 97%   Direction: 190°S
Pressure: 29.95"   Gusts: NA
Location:  42.2°N, 122.71°W
Report Text: KMFR 231755Z 19004KT 2 1/2SM +RA BR BKN004 BKN029 OVC037 13/13 A2995 RMK AO2 PRESRR P0001 T01330128
Loading
Personal Weather Stations






























Interactive Weather Map
Tropical Storm Tracking
New forecast layout! Learn more

10-Day Weather Forecast

Advertisements
Track Severe Weather on mobile